createdAt,value
2023-02-14T00:00:03.522Z,11.35
2023-02-14T00:02:34.784Z,12.85
2023-02-14T00:05:01.291Z,11.88
2023-02-14T00:07:27.700Z,11.80
2023-02-14T00:09:54.076Z,12.40
2023-02-14T00:12:20.558Z,11.52
2023-02-14T00:14:46.950Z,12.82
2023-02-14T00:17:13.372Z,12.35
2023-02-14T00:19:39.917Z,11.05
2023-02-14T00:22:06.326Z,12.68
2023-02-14T00:24:32.718Z,11.40
2023-02-14T00:26:59.161Z,11.90
2023-02-14T00:29:25.545Z,13.15
2023-02-14T00:31:52.020Z,10.57
2023-02-14T00:34:18.497Z,12.00
2023-02-14T00:36:44.917Z,11.20
2023-02-14T00:39:11.393Z,11.90
2023-02-14T00:41:37.896Z,11.65
2023-02-14T00:44:04.373Z,11.55
2023-02-14T00:46:30.796Z,11.85
2023-02-14T00:48:57.247Z,12.43
2023-02-14T00:51:23.703Z,10.27
2023-02-14T00:53:50.105Z,11.65
2023-02-14T00:56:16.531Z,12.85
2023-02-14T00:58:42.979Z,11.27
2023-02-14T01:01:09.432Z,10.35
2023-02-14T01:03:35.915Z,10.88
2023-02-14T01:06:02.312Z,12.32
2023-02-14T01:08:29.580Z,11.70
2023-02-14T01:10:56.027Z,11.68
2023-02-14T01:13:22.422Z,11.60
2023-02-14T01:15:48.814Z,10.80
2023-02-14T01:18:15.263Z,10.60
2023-02-14T01:20:41.656Z,10.95
2023-02-14T01:23:08.092Z,10.80
2023-02-14T01:25:34.543Z,12.05
2023-02-14T01:28:00.937Z,12.13
2023-02-14T01:30:27.396Z,11.68
2023-02-14T01:32:53.896Z,11.07
2023-02-14T01:35:20.490Z,12.63
2023-02-14T01:37:46.920Z,12.82
2023-02-14T01:40:13.544Z,12.43
2023-02-14T01:42:42.606Z,12.80
2023-02-14T01:45:08.993Z,12.07
2023-02-14T01:47:35.443Z,13.23
2023-02-14T01:50:01.874Z,14.52
2023-02-14T01:52:28.301Z,13.27
2023-02-14T01:54:54.761Z,13.90
2023-02-14T01:57:21.205Z,13.63
2023-02-14T01:59:47.592Z,13.77
2023-02-14T02:02:14.100Z,12.73
2023-02-14T02:04:40.569Z,13.48
2023-02-14T02:07:06.972Z,11.82
2023-02-14T02:09:33.409Z,13.98
2023-02-14T02:11:59.799Z,13.02
2023-02-14T02:14:26.216Z,11.40
2023-02-14T02:16:52.761Z,12.23
2023-02-14T02:19:19.209Z,11.65
2023-02-14T02:21:45.619Z,11.52
2023-02-14T02:24:12.154Z,12.93
2023-02-14T02:26:38.559Z,11.13
2023-02-14T02:29:05.070Z,12.00
2023-02-14T02:31:31.694Z,12.60
2023-02-14T02:33:58.268Z,10.68
2023-02-14T02:36:24.730Z,10.57
2023-02-14T02:38:51.855Z,11.70
2023-02-14T02:41:18.645Z,11.20
2023-02-14T02:43:45.056Z,12.68
2023-02-14T02:46:11.546Z,11.35
2023-02-14T02:48:38.003Z,11.68
2023-02-14T02:51:06.018Z,11.20
2023-02-14T02:53:32.448Z,10.75
2023-02-14T02:55:58.986Z,12.20
2023-02-14T02:58:25.456Z,12.38
2023-02-14T03:00:51.924Z,10.00
2023-02-14T03:03:21.252Z,10.65
2023-02-14T03:05:47.658Z,9.00
2023-02-14T03:08:16.082Z,9.18
2023-02-14T03:10:42.474Z,8.85
2023-02-14T03:13:09.176Z,9.05
2023-02-14T03:15:35.708Z,8.05
2023-02-14T03:18:02.180Z,8.02
2023-02-14T03:20:28.641Z,8.57
2023-02-14T03:22:57.071Z,8.20
2023-02-14T03:25:23.498Z,7.97
2023-02-14T03:27:49.915Z,8.30
2023-02-14T03:30:16.398Z,6.65
2023-02-14T03:32:42.812Z,7.28
2023-02-14T03:35:09.640Z,7.45
2023-02-14T03:37:36.151Z,6.95
2023-02-14T03:40:03.292Z,6.72
2023-02-14T03:42:29.942Z,6.95
2023-02-14T03:44:56.556Z,6.78
2023-02-14T03:47:23.095Z,6.75
2023-02-14T03:49:49.586Z,6.88
2023-02-14T03:52:16.157Z,6.25
2023-02-14T03:54:42.553Z,5.95
2023-02-14T03:57:08.935Z,6.10
2023-02-14T03:59:35.386Z,7.00
2023-02-14T04:02:01.852Z,7.22
2023-02-14T04:04:28.315Z,6.60
2023-02-14T04:06:54.777Z,5.93
2023-02-14T04:09:21.164Z,6.63
2023-02-14T04:11:47.693Z,5.15
2023-02-14T04:14:14.214Z,6.50
2023-02-14T04:16:40.658Z,5.85
2023-02-14T04:19:07.071Z,6.55
2023-02-14T04:21:33.552Z,5.85
2023-02-14T04:24:00.008Z,5.20
2023-02-14T04:26:26.399Z,4.95
2023-02-14T04:28:52.861Z,5.75
2023-02-14T04:31:19.393Z,5.32
2023-02-14T04:33:45.909Z,6.50
2023-02-14T04:36:12.429Z,5.35
2023-02-14T04:38:38.881Z,5.53
2023-02-14T04:41:05.350Z,6.90
2023-02-14T04:43:31.806Z,7.55
2023-02-14T04:45:58.288Z,6.35
2023-02-14T04:48:24.775Z,7.07
2023-02-14T04:50:51.252Z,7.25
2023-02-14T04:53:17.721Z,6.18
2023-02-14T04:55:44.260Z,6.13
2023-02-14T04:58:10.719Z,5.88
2023-02-14T05:00:37.181Z,5.40
2023-02-14T05:03:03.673Z,5.13
2023-02-14T05:05:30.207Z,4.63
2023-02-14T05:07:56.709Z,6.35
2023-02-14T05:10:23.231Z,6.85
2023-02-14T05:12:49.808Z,5.97
2023-02-14T05:15:16.311Z,5.45
2023-02-14T05:17:42.784Z,5.32
2023-02-14T05:20:09.261Z,5.45
2023-02-14T05:22:35.729Z,4.70
2023-02-14T05:25:02.235Z,5.30
2023-02-14T05:27:28.933Z,7.97
2023-02-14T05:29:55.444Z,4.65
2023-02-14T05:32:21.989Z,5.40
2023-02-14T05:34:48.487Z,4.97
2023-02-14T05:37:14.934Z,5.07
2023-02-14T05:39:41.368Z,5.53
2023-02-14T05:42:12.249Z,5.75
2023-02-14T05:44:38.724Z,4.95
2023-02-14T05:47:05.157Z,5.35
2023-02-14T05:49:31.700Z,4.88
2023-02-14T05:51:58.171Z,5.40
2023-02-14T05:54:24.673Z,4.93
2023-02-14T05:56:51.179Z,5.70
2023-02-14T05:59:17.626Z,4.82
2023-02-14T06:01:44.115Z,10.68
2023-02-14T06:04:10.688Z,5.18
2023-02-14T06:06:37.163Z,8.27
2023-02-14T06:09:05.109Z,5.40
2023-02-14T06:11:31.669Z,11.95
2023-02-14T06:13:58.130Z,15.82
2023-02-14T06:16:24.636Z,7.63
2023-02-14T06:18:51.230Z,5.07
2023-02-14T06:21:17.697Z,11.00
2023-02-14T06:23:44.212Z,10.75
2023-02-14T06:26:10.741Z,9.82
2023-02-14T06:28:37.227Z,8.52
2023-02-14T06:31:04.114Z,9.60
2023-02-14T06:33:30.907Z,6.28
2023-02-14T06:35:57.380Z,7.82
2023-02-14T06:38:23.825Z,9.20
2023-02-14T06:40:50.405Z,8.63
2023-02-14T06:43:16.838Z,7.32
2023-02-14T06:45:43.308Z,7.03
2023-02-14T06:48:09.830Z,8.93
2023-02-14T06:50:36.289Z,5.88
2023-02-14T06:53:02.693Z,7.60
2023-02-14T06:55:29.159Z,6.13
2023-02-14T06:57:55.588Z,9.55
2023-02-14T07:00:22.035Z,6.68
2023-02-14T07:02:48.568Z,6.32
2023-02-14T07:05:15.084Z,6.65
2023-02-14T07:07:41.538Z,6.03
2023-02-14T07:10:08.030Z,5.30
2023-02-14T07:12:34.460Z,5.40
2023-02-14T07:15:00.883Z,10.10
2023-02-14T07:17:27.383Z,10.10
2023-02-14T07:19:53.858Z,10.80
2023-02-14T07:22:20.314Z,8.90
2023-02-14T07:24:46.808Z,7.70
2023-02-14T07:27:13.249Z,7.55
2023-02-14T07:29:39.678Z,6.82
2023-02-14T07:32:06.328Z,8.27
2023-02-14T07:34:32.827Z,7.57
2023-02-14T07:36:59.240Z,7.65
2023-02-14T07:39:25.730Z,11.20
2023-02-14T07:41:52.159Z,6.70
2023-02-14T07:44:19.314Z,7.00
2023-02-14T07:46:45.797Z,9.40
2023-02-14T07:49:12.228Z,7.68
2023-02-14T07:51:38.652Z,8.75
2023-02-14T07:54:05.129Z,9.30
2023-02-14T07:56:31.589Z,7.25
2023-02-14T07:58:58.060Z,8.98
2023-02-14T08:01:24.586Z,7.85
2023-02-14T08:03:51.012Z,6.35
2023-02-14T08:06:17.479Z,8.13
2023-02-14T08:08:43.971Z,7.07
2023-02-14T08:11:10.389Z,8.82
2023-02-14T08:13:36.852Z,5.43
2023-02-14T08:16:03.385Z,7.25
2023-02-14T08:18:29.852Z,14.02
2023-02-14T08:20:56.317Z,9.07
2023-02-14T08:23:22.807Z,8.68
2023-02-14T08:25:49.234Z,8.30
2023-02-14T08:28:15.658Z,8.32
2023-02-14T08:30:42.163Z,6.88
2023-02-14T08:33:08.600Z,6.80
2023-02-14T08:35:34.999Z,8.43
2023-02-14T08:38:01.499Z,6.72
2023-02-14T08:40:27.907Z,5.78
2023-02-14T08:42:54.320Z,6.38
2023-02-14T08:45:20.848Z,7.32
2023-02-14T08:47:47.248Z,6.95
2023-02-14T08:50:13.675Z,5.70
2023-02-14T08:52:40.171Z,5.53
2023-02-14T08:55:06.646Z,5.30
2023-02-14T08:57:33.178Z,4.70
2023-02-14T08:59:59.783Z,5.18
2023-02-14T09:02:26.251Z,5.28
2023-02-14T09:04:52.750Z,5.10
2023-02-14T09:07:19.237Z,6.00
2023-02-14T09:09:45.662Z,6.28
2023-02-14T09:12:12.235Z,6.05
2023-02-14T09:14:38.762Z,6.47
2023-02-14T09:17:05.239Z,5.22
2023-02-14T09:19:31.678Z,5.80
2023-02-14T09:21:58.149Z,6.07
2023-02-14T09:24:24.573Z,5.00
2023-02-14T09:26:51.013Z,5.75
2023-02-14T09:29:17.501Z,5.88
2023-02-14T09:31:44.008Z,6.35
2023-02-14T09:34:10.508Z,5.55
2023-02-14T09:36:36.989Z,5.63
2023-02-14T09:39:03.443Z,4.43
2023-02-14T09:41:29.854Z,5.47
2023-02-14T09:43:56.422Z,5.50
2023-02-14T09:46:22.927Z,5.00
2023-02-14T09:48:49.368Z,4.18
2023-02-14T09:51:15.878Z,5.57
2023-02-14T09:53:42.303Z,6.40
2023-02-14T09:56:08.748Z,6.03
2023-02-14T09:58:35.738Z,4.95
2023-02-14T10:01:02.506Z,5.28
2023-02-14T10:03:29.119Z,6.65
2023-02-14T10:05:55.763Z,5.32
2023-02-14T10:08:22.188Z,5.65
2023-02-14T10:10:48.616Z,5.72
2023-02-14T10:13:15.143Z,5.40
2023-02-14T10:15:41.622Z,5.88
2023-02-14T10:18:08.088Z,6.60
2023-02-14T10:20:34.569Z,4.78
2023-02-14T10:23:01.187Z,5.65
2023-02-14T10:25:27.664Z,4.45
2023-02-14T10:27:54.165Z,5.10
2023-02-14T10:30:20.685Z,5.07
2023-02-14T10:32:47.132Z,6.55
2023-02-14T10:35:13.605Z,5.78
2023-02-14T10:37:40.098Z,9.27
2023-02-14T10:40:06.512Z,5.97
2023-02-14T10:42:33.000Z,8.48
2023-02-14T10:44:59.458Z,6.15
2023-02-14T10:47:25.916Z,6.18
2023-02-14T10:49:52.417Z,6.35
2023-02-14T10:52:18.868Z,5.30
2023-02-14T10:54:45.274Z,7.25
2023-02-14T10:57:11.769Z,7.18
2023-02-14T10:59:38.174Z,6.03
2023-02-14T11:02:04.572Z,5.05
2023-02-14T11:04:31.146Z,7.65
2023-02-14T11:06:57.551Z,8.27
2023-02-14T11:09:23.987Z,7.28
2023-02-14T11:11:50.467Z,6.30
2023-02-14T11:14:17.427Z,9.15
2023-02-14T11:16:44.674Z,9.38
2023-02-14T11:19:11.181Z,9.07
2023-02-14T11:21:37.612Z,24.58
2023-02-14T11:24:04.038Z,41.22
2023-02-14T11:26:30.498Z,22.30
2023-02-14T11:28:57.008Z,20.02
2023-02-14T11:31:23.528Z,19.75
2023-02-14T11:33:50.038Z,17.83
2023-02-14T11:36:16.474Z,19.15
2023-02-14T11:38:42.943Z,18.13
2023-02-14T11:41:09.419Z,18.73
2023-02-14T11:43:35.851Z,16.27
2023-02-14T11:46:02.324Z,15.70
2023-02-14T11:48:38.333Z,14.77
2023-02-14T11:51:05.513Z,15.77
2023-02-14T11:53:31.999Z,14.43
2023-02-14T11:55:58.442Z,13.95
2023-02-14T11:58:24.893Z,14.98
2023-02-14T12:00:51.390Z,13.13
2023-02-14T12:03:17.845Z,13.93
2023-02-14T12:05:44.298Z,11.88
2023-02-14T12:08:10.794Z,12.43
2023-02-14T12:10:37.255Z,13.38
2023-02-14T12:13:03.700Z,9.93
2023-02-14T12:15:30.253Z,11.15
2023-02-14T12:17:56.698Z,11.80
2023-02-14T12:20:23.141Z,11.90
2023-02-14T12:22:49.621Z,10.60
2023-02-14T12:25:16.029Z,10.52
2023-02-14T12:27:42.457Z,10.25
2023-02-14T12:30:08.971Z,10.30
2023-02-14T12:32:35.426Z,9.70
2023-02-14T12:35:01.855Z,9.63
2023-02-14T12:37:28.352Z,10.55
2023-02-14T12:39:54.780Z,10.10
2023-02-14T12:42:21.187Z,8.52
2023-02-14T12:44:47.687Z,12.60
2023-02-14T12:47:14.130Z,8.60
2023-02-14T12:49:40.560Z,10.90
2023-02-14T12:52:07.050Z,10.55
2023-02-14T12:54:33.494Z,8.82
2023-02-14T12:56:59.941Z,8.52
2023-02-14T12:59:26.439Z,8.60
2023-02-14T13:01:52.900Z,8.25
2023-02-14T13:04:19.360Z,8.93
2023-02-14T13:06:46.128Z,7.93
2023-02-14T13:09:12.580Z,8.30
2023-02-14T13:11:38.993Z,8.63
2023-02-14T13:14:05.525Z,8.00
2023-02-14T13:16:31.993Z,7.97
2023-02-14T13:18:58.436Z,8.68
2023-02-14T13:21:24.931Z,7.57
2023-02-14T13:23:51.422Z,9.50
2023-02-14T13:26:17.858Z,8.75
2023-02-14T13:28:44.338Z,7.70
2023-02-14T13:31:10.851Z,11.85
2023-02-14T13:33:37.342Z,18.33
2023-02-14T13:36:03.831Z,9.63
2023-02-14T13:38:30.460Z,11.88
2023-02-14T13:40:56.930Z,12.05
2023-02-14T13:43:23.416Z,9.52
2023-02-14T13:45:49.818Z,8.80
2023-02-14T13:48:16.225Z,6.78
2023-02-14T13:50:42.671Z,8.32
2023-02-14T13:53:09.284Z,8.52
2023-02-14T13:55:35.683Z,8.93
2023-02-14T13:58:02.211Z,8.18
2023-02-14T14:00:28.650Z,8.38
2023-02-14T14:02:55.103Z,6.97
2023-02-14T14:05:21.569Z,8.30
2023-02-14T14:07:47.962Z,9.65
2023-02-14T14:10:14.372Z,7.55
2023-02-14T14:12:40.926Z,7.80
2023-02-14T14:15:07.327Z,6.55
2023-02-14T14:17:33.866Z,8.77
2023-02-14T14:20:00.352Z,8.15
2023-02-14T14:22:26.781Z,7.30
2023-02-14T14:24:53.198Z,10.50
2023-02-14T14:27:19.710Z,8.32
2023-02-14T14:29:46.127Z,7.30
2023-02-14T14:32:12.923Z,7.85
2023-02-14T14:34:39.527Z,8.40
2023-02-14T14:37:06.013Z,6.97
2023-02-14T14:39:32.537Z,10.18
2023-02-14T14:41:59.011Z,7.82
2023-02-14T14:44:25.480Z,7.13
2023-02-14T14:46:51.904Z,8.95
2023-02-14T14:49:18.432Z,7.43
2023-02-14T14:51:44.930Z,6.93
2023-02-14T14:54:11.376Z,8.20
2023-02-14T14:56:37.856Z,8.00
2023-02-14T14:59:04.287Z,8.32
2023-02-14T15:01:30.737Z,7.45
2023-02-14T15:03:57.253Z,7.60
2023-02-14T15:06:23.682Z,9.45
2023-02-14T15:08:50.118Z,8.65
2023-02-14T15:11:16.572Z,7.75
2023-02-14T15:13:43.013Z,6.93
2023-02-14T15:16:09.451Z,6.88
2023-02-14T15:18:35.900Z,8.18
2023-02-14T15:21:02.836Z,7.03
2023-02-14T15:23:29.492Z,7.90
2023-02-14T15:25:56.045Z,8.18
2023-02-14T15:28:22.490Z,7.95
2023-02-14T15:30:48.998Z,8.55
2023-02-14T15:33:15.543Z,8.32
2023-02-14T15:35:41.952Z,7.03
2023-02-14T15:38:08.395Z,6.55
2023-02-14T15:40:34.965Z,6.85
2023-02-14T15:43:01.441Z,7.70
2023-02-14T15:45:27.966Z,8.57
2023-02-14T15:47:54.475Z,9.07
2023-02-14T15:50:20.881Z,7.43
2023-02-14T15:52:47.264Z,7.63
2023-02-14T15:55:13.911Z,7.78
2023-02-14T15:57:40.423Z,7.60
2023-02-14T16:00:06.843Z,6.95
2023-02-14T16:02:38.567Z,6.43
2023-02-14T16:05:04.997Z,6.20
2023-02-14T16:07:31.446Z,6.68
2023-02-14T16:09:57.973Z,6.72
2023-02-14T16:12:24.609Z,5.95
2023-02-14T16:14:51.076Z,7.07
2023-02-14T16:17:17.633Z,6.22
2023-02-14T16:19:44.096Z,6.72
2023-02-14T16:22:10.539Z,6.22
2023-02-14T16:24:36.998Z,6.40
2023-02-14T16:27:03.383Z,6.80
2023-02-14T16:29:29.760Z,6.43
2023-02-14T16:32:14.705Z,6.18
2023-02-14T16:34:42.370Z,5.88
2023-02-14T16:37:08.863Z,6.63
2023-02-14T16:39:35.305Z,7.43
2023-02-14T16:42:01.726Z,6.95
2023-02-14T16:44:28.225Z,6.78
2023-02-14T16:46:54.605Z,6.38
2023-02-14T16:49:21.006Z,7.05
2023-02-14T16:51:47.441Z,7.35
2023-02-14T16:54:13.821Z,7.55
2023-02-14T16:56:40.203Z,7.10
2023-02-14T16:59:06.681Z,7.50
2023-02-14T17:01:33.144Z,6.82
2023-02-14T17:03:59.710Z,6.43
2023-02-14T17:06:26.246Z,6.13
2023-02-14T17:08:52.690Z,6.82
2023-02-14T17:11:19.123Z,6.78
2023-02-14T17:13:45.656Z,6.63
2023-02-14T17:16:12.149Z,7.18
2023-02-14T17:18:38.676Z,7.88
2023-02-14T17:21:05.170Z,6.82
2023-02-14T17:23:31.643Z,7.53
2023-02-14T17:25:58.090Z,7.35
2023-02-14T17:28:24.538Z,6.60
2023-02-14T17:30:51.066Z,6.82
2023-02-14T17:33:17.591Z,7.78
2023-02-14T17:35:44.088Z,7.28
2023-02-14T17:38:10.585Z,7.22
2023-02-14T17:40:36.966Z,7.60
2023-02-14T17:43:03.461Z,7.18
2023-02-14T17:45:29.919Z,7.00
2023-02-14T17:47:56.398Z,6.55
2023-02-14T17:50:22.892Z,8.68
2023-02-14T17:52:49.278Z,6.68
2023-02-14T17:55:15.696Z,6.07
2023-02-14T17:57:42.138Z,6.97
2023-02-14T18:00:11.306Z,7.32
2023-02-14T18:02:40.805Z,7.47
2023-02-14T18:05:07.397Z,6.78
2023-02-14T18:07:33.890Z,6.32
2023-02-14T18:10:00.419Z,6.10
2023-02-14T18:12:26.952Z,6.55
2023-02-14T18:14:53.392Z,6.85
2023-02-14T18:17:19.886Z,6.50
2023-02-14T18:19:46.495Z,6.43
2023-02-14T18:22:12.914Z,6.05
2023-02-14T18:24:39.305Z,5.70
2023-02-14T18:27:05.848Z,6.65
2023-02-14T18:29:32.343Z,6.22
2023-02-14T18:31:58.757Z,6.32
2023-02-14T18:34:25.222Z,6.78
2023-02-14T18:36:51.637Z,6.72
2023-02-14T18:39:18.072Z,6.55
2023-02-14T18:41:44.565Z,7.35
2023-02-14T18:44:11.034Z,6.65
2023-02-14T18:46:37.509Z,6.65
2023-02-14T18:49:04.027Z,7.60
2023-02-14T18:51:30.474Z,7.00
2023-02-14T18:53:56.951Z,5.93
2023-02-14T18:56:23.529Z,6.53
2023-02-14T18:58:49.975Z,7.35
2023-02-14T19:01:16.501Z,7.10
2023-02-14T19:03:43.080Z,7.63
2023-02-14T19:06:09.506Z,7.53
2023-02-14T19:08:35.998Z,6.57
2023-02-14T19:11:02.786Z,6.07
2023-02-14T19:13:29.332Z,6.32
2023-02-14T19:15:55.804Z,6.03
2023-02-14T19:18:24.188Z,6.78
2023-02-14T19:20:52.142Z,6.95
2023-02-14T19:23:18.619Z,7.43
2023-02-14T19:25:45.195Z,6.55
2023-02-14T19:28:11.682Z,7.07
2023-02-14T19:30:38.086Z,6.35
2023-02-14T19:33:04.635Z,6.50
2023-02-14T19:35:31.094Z,5.80
2023-02-14T19:37:57.582Z,7.70
2023-02-14T19:40:24.141Z,6.47
2023-02-14T19:42:50.561Z,5.75
2023-02-14T19:45:17.067Z,6.63
2023-02-14T19:47:47.333Z,6.90
2023-02-14T19:50:14.054Z,6.53
2023-02-14T19:52:40.514Z,6.65
2023-02-14T19:55:06.969Z,6.63
2023-02-14T19:57:33.460Z,7.43
2023-02-14T19:59:59.988Z,7.20
2023-02-14T20:02:26.587Z,7.22
2023-02-14T20:04:53.092Z,6.72
2023-02-14T20:07:19.542Z,7.30
2023-02-14T20:09:46.088Z,7.18
2023-02-14T20:12:12.550Z,7.38
2023-02-14T20:14:51.019Z,7.35
2023-02-14T20:17:18.318Z,8.18
2023-02-14T20:19:44.755Z,7.22
2023-02-14T20:22:11.171Z,9.35
2023-02-14T20:24:37.590Z,8.02
2023-02-14T20:27:04.084Z,7.10
2023-02-14T20:29:30.478Z,8.07
2023-02-14T20:31:56.926Z,7.88
2023-02-14T20:34:23.378Z,8.93
2023-02-14T20:36:49.777Z,8.32
2023-02-14T20:39:16.212Z,8.40
2023-02-14T20:41:42.623Z,9.48
2023-02-14T20:44:09.053Z,7.95
2023-02-14T20:46:35.564Z,8.77
2023-02-14T20:49:02.136Z,9.15
2023-02-14T20:51:28.533Z,9.70
2023-02-14T20:53:54.984Z,9.13
2023-02-14T20:56:21.421Z,8.85
2023-02-14T20:58:47.875Z,10.98
2023-02-14T21:01:14.365Z,11.05
2023-02-14T21:03:40.956Z,9.38
2023-02-14T21:06:07.395Z,10.45
2023-02-14T21:08:33.824Z,10.00
2023-02-14T21:11:00.520Z,10.32
2023-02-14T21:13:27.176Z,10.55
2023-02-14T21:15:53.617Z,11.05
2023-02-14T21:18:20.082Z,11.10
2023-02-14T21:20:46.514Z,10.48
2023-02-14T21:23:12.954Z,10.73
2023-02-14T21:25:39.505Z,9.88
2023-02-14T21:28:05.939Z,11.45
2023-02-14T21:30:32.358Z,11.25
2023-02-14T21:32:58.771Z,11.27
2023-02-14T21:35:25.228Z,10.93
2023-02-14T21:37:51.719Z,11.50
2023-02-14T21:40:18.177Z,11.73
2023-02-14T21:42:44.550Z,12.40
2023-02-14T21:45:10.979Z,13.07
2023-02-14T21:47:37.433Z,12.60
2023-02-14T21:50:03.813Z,14.20
2023-02-14T21:52:30.272Z,12.85
2023-02-14T21:54:56.748Z,12.75
2023-02-14T21:57:23.111Z,12.50
2023-02-14T21:59:49.584Z,12.43
2023-02-14T22:02:16.040Z,13.30
2023-02-14T22:04:42.411Z,12.80
2023-02-14T22:07:08.806Z,13.05
2023-02-14T22:09:35.290Z,15.02
2023-02-14T22:12:01.659Z,16.00
2023-02-14T22:14:28.119Z,15.18
2023-02-14T22:16:54.522Z,15.00
2023-02-14T22:19:20.908Z,14.00
2023-02-14T22:21:47.339Z,13.90
2023-02-14T22:24:13.741Z,13.60
2023-02-14T22:26:40.150Z,15.77
2023-02-14T22:29:06.589Z,15.73
2023-02-14T22:31:33.200Z,14.15
2023-02-14T22:33:59.680Z,14.50
2023-02-14T22:36:26.127Z,14.07
2023-02-14T22:38:52.581Z,14.55
2023-02-14T22:41:18.984Z,13.75
2023-02-14T22:43:45.439Z,14.85
2023-02-14T22:46:11.855Z,13.93
2023-02-14T22:48:38.327Z,14.60
2023-02-14T22:51:04.819Z,15.32
2023-02-14T22:53:31.192Z,14.48
2023-02-14T22:55:57.568Z,16.15
2023-02-14T22:58:24.007Z,16.48
2023-02-14T23:00:50.389Z,16.92
2023-02-14T23:03:16.798Z,17.02
2023-02-14T23:05:43.235Z,17.30
2023-02-14T23:08:09.615Z,18.85
2023-02-14T23:10:36.041Z,16.75
2023-02-14T23:13:02.477Z,19.08
2023-02-14T23:15:28.872Z,18.05
2023-02-14T23:17:55.273Z,17.65
2023-02-14T23:20:21.718Z,18.65
2023-02-14T23:22:48.097Z,18.30
2023-02-14T23:25:14.471Z,18.13
2023-02-14T23:27:40.902Z,20.25
2023-02-14T23:30:07.362Z,18.90
2023-02-14T23:32:33.759Z,19.77
2023-02-14T23:35:00.211Z,17.55
2023-02-14T23:37:26.611Z,17.80
2023-02-14T23:39:53.019Z,18.35
2023-02-14T23:42:19.449Z,19.15
2023-02-14T23:44:45.847Z,18.38
2023-02-14T23:47:12.217Z,17.63
2023-02-14T23:49:38.652Z,19.88
2023-02-14T23:52:05.047Z,20.23
2023-02-14T23:54:31.522Z,20.05
2023-02-14T23:56:58.027Z,19.98
2023-02-14T23:59:24.408Z,21.73
